EDT,Max TemperatureF,Mean TemperatureF,Min TemperatureF,Max Dew PointF,MeanDew PointF,Min DewpointF,Max Humidity, Mean Humidity, Min Humidity, Max Sea Level PressureIn, Mean Sea Level PressureIn, Min Sea Level PressureIn, Max VisibilityMiles, Mean VisibilityMiles, Min VisibilityMiles, Max Wind SpeedMPH, Mean Wind SpeedMPH, Max Gust SpeedMPH,PrecipitationIn, CloudCover, Events, WindDirDegrees
2013-10-1,79,68,57,65,60,56,100,79,58,30.08,30.03,30.00,10,4,0,12,3,14,0.00,6,Fog,180
2013-10-2,75,70,64,68,67,63,100,90,79,30.12,30.08,30.04,10,6,1,10,3,14,T,6,,193
2013-10-3,82,74,66,67,65,64,100,78,55,30.07,30.03,29.97,10,8,2,15,6,21,T,3,,198
2013-10-4,81,72,63,70,67,63,100,84,67,30.09,30.05,30.00,10,8,2,9,3,14,0.11,5,Rain-Thunderstorm,179
2013-10-5,76,71,65,70,68,64,97,90,82,30.04,29.98,29.88,10,7,1,20,6,29,1.71,6,Rain,193
2013-10-6,67,57,47,66,57,40,100,82,63,29.89,29.83,29.76,10,7,1,15,6,21,2.45,7,Rain-Thunderstorm,202
2013-10-7,62,54,45,48,43,41,93,74,55,30.17,29.99,29.84,10,10,10,14,5,22,T,5,Rain,265
2013-10-8,69,56,42,51,44,39,100,70,39,30.26,30.21,30.17,10,10,2,14,3,17,0.00,0,,105
2013-10-9,73,57,41,53,47,39,96,70,44,30.23,30.18,30.15,10,9,1,10,2,14,0.00,0,,101
2013-10-10,75,60,45,54,48,43,100,73,46,30.19,30.14,30.08,10,6,0,8,1,13,0.00,1,Fog,97
2013-10-11,76,60,43,54,46,43,100,69,38,30.12,30.08,30.03,10,4,0,8,1,12,0.00,1,Fog,87
2013-10-12,79,63,47,61,51,45,100,73,45,30.13,30.07,30.04,10,7,0,12,2,15,0.00,2,Fog,182
2013-10-13,72,59,46,61,46,38,93,61,29,30.34,30.26,30.13,10,10,6,15,6,20,0.00,1,,3
2013-10-14,70,58,45,49,44,40,93,65,37,30.35,30.27,30.17,10,10,10,10,4,14,0.00,0,,69
2013-10-15,66,58,50,63,59,47,93,85,77,30.15,29.99,29.94,10,9,4,14,6,20,0.10,5,Rain,188
2013-10-16,64,53,41,63,50,40,93,72,51,30.00,29.95,29.89,10,9,2,15,4,21,0.15,5,Rain,255
2013-10-17,58,49,40,46,43,38,100,80,59,29.99,29.96,29.92,10,9,5,13,4,20,0.11,5,Rain,248
2013-10-18,67,54,40,46,43,39,96,68,40,30.03,29.98,29.93,10,10,7,16,5,22,0.00,1,,241
2013-10-19,53,47,40,44,40,33,93,72,50,30.01,29.94,29.88,10,9,4,13,4,18,0.29,6,Rain,267
2013-10-20,63,51,38,40,38,34,85,64,43,30.02,29.99,29.96,10,10,10,18,8,25,0.00,0,,209
2013-10-21,62,52,41,46,41,31,83,68,53,30.02,29.97,29.93,10,10,10,14,7,20,T,4,Rain,238
2013-10-22,52,41,29,41,31,26,92,65,38,30.06,29.97,29.79,10,10,10,9,3,13,0.02,4,Rain,175
2013-10-23,47,42,36,43,33,28,92,71,49,30.09,29.96,29.76,10,10,7,14,7,23,0.02,7,Rain,288
2013-10-24,39,37,34,36,31,26,89,77,64,30.33,30.18,30.08,10,10,3,18,4,24,0.01,8,Rain,276
2013-10-25,49,38,27,28,24,20,92,62,31,30.48,30.40,30.29,10,10,10,12,3,16,0.00,1,,260
2013-10-26,59,45,30,38,30,24,82,63,43,30.27,30.10,29.96,10,10,10,20,7,29,0.00,3,,231
2013-10-27,58,43,28,35,30,26,92,63,33,30.13,30.09,30.06,10,10,9,9,1,16,0.00,0,,225
2013-10-28,63,45,27,38,30,25,92,60,27,30.31,30.21,30.10,10,10,6,8,1,12,0.00,0,,135
2013-10-29,54,50,46,50,41,31,96,81,65,30.33,30.25,30.17,10,8,2,8,3,10,0.12,3,Rain,123
2013-10-30,67,60,52,63,56,50,100,91,81,30.17,30.10,29.98,10,3,0,15,6,22,0.09,8,Fog-Rain,147
2013-10-31,68,61,54,63,58,54,97,85,73,29.96,29.60,29.36,10,7,1,26,14,41,1.31,8,Rain-Thunderstorm,210